Time;durP1;ratioP1;P1;durP2;ratioP2;P2;SDS_P1;SDS_P2;PMS_P1;PMS_P2;Temp;Humidity;BMP_temperature;BMP_pressure;BME280_temperature;BME280_humidity;BME280_pressure;Samples;Min_cycle;Max_cycle;Signal;HPM_P1;HPM_P2
2024/01/17 00:00:17;;;;;;;1.98;1.30;;;21.30;45.60;;;;;;4945298;28;92990;-67
2024/01/17 00:02:42;;;;;;;2.00;1.30;;;21.20;45.70;;;;;;4943968;28;91937;-67
2024/01/17 00:05:11;;;;;;;3.13;1.40;;;21.20;45.70;;;;;;4953343;28;94372;-67
2024/01/17 00:07:37;;;;;;;2.25;1.40;;;21.20;45.70;;;;;;4944923;28;92389;-67
2024/01/17 00:10:04;;;;;;;2.60;1.20;;;21.20;45.70;;;;;;4949789;28;92414;-67
2024/01/17 00:12:31;;;;;;;2.15;1.67;;;21.10;45.60;;;;;;4945969;28;92456;-67
2024/01/17 00:14:57;;;;;;;2.53;1.70;;;21.10;45.70;;;;;;4939693;28;95459;-67
2024/01/17 00:17:22;;;;;;;1.83;1.50;;;21.10;45.60;;;;;;4961871;28;93940;-67
2024/01/17 00:19:50;;;;;;;2.50;1.45;;;21.10;45.60;;;;;;4952884;28;92686;-67
2024/01/17 00:22:16;;;;;;;1.98;1.10;;;21.10;45.50;;;;;;4946392;28;93390;-67
2024/01/17 00:24:43;;;;;;;1.88;1.30;;;21.00;45.50;;;;;;4960826;28;96380;-67
2024/01/17 00:27:09;;;;;;;1.88;1.25;;;21.00;45.60;;;;;;4946955;28;93112;-67
2024/01/17 00:29:36;;;;;;;2.33;1.35;;;21.00;45.60;;;;;;4963330;28;92115;-68
2024/01/17 00:32:02;;;;;;;1.65;1.10;;;20.90;45.60;;;;;;4960965;28;92119;-67
2024/01/17 00:34:28;;;;;;;1.73;1.10;;;20.90;45.70;;;;;;4944664;28;94163;-67
2024/01/17 00:36:54;;;;;;;2.70;1.50;;;20.90;45.70;;;;;;4963191;28;95257;-67
2024/01/17 00:39:22;;;;;;;2.22;1.48;;;20.90;45.60;;;;;;4945679;28;93378;-68
2024/01/17 00:41:48;;;;;;;2.63;1.55;;;20.80;45.80;;;;;;4947905;28;92100;-67
2024/01/17 00:44:17;;;;;;;1.95;1.27;;;20.80;45.60;;;;;;4965711;28;93429;-67
2024/01/17 00:46:43;;;;;;;1.45;1.20;;;20.80;45.90;;;;;;4951972;28;93167;-67
2024/01/17 00:49:09;;;;;;;1.63;1.13;;;20.80;45.60;;;;;;4924130;28;92586;-67
2024/01/17 00:51:35;;;;;;;2.83;1.25;;;20.80;45.70;;;;;;4936401;28;92706;-67
2024/01/17 00:54:01;;;;;;;1.90;1.30;;;20.70;45.60;;;;;;4964612;28;93906;-67
2024/01/17 00:56:27;;;;;;;1.95;1.35;;;20.70;45.70;;;;;;4951315;28;92809;-67
2024/01/17 00:58:53;;;;;;;2.22;1.40;;;20.70;45.70;;;;;;4954831;28;92769;-67
2024/01/17 01:01:20;;;;;;;2.05;1.40;;;20.70;45.70;;;;;;4952463;28;92758;-67
2024/01/17 01:03:46;;;;;;;2.03;1.40;;;20.70;45.70;;;;;;4952235;28;94944;-67
2024/01/17 01:06:11;;;;;;;2.53;1.40;;;20.60;45.70;;;;;;4951543;28;94637;-67
2024/01/17 01:08:37;;;;;;;1.77;1.30;;;20.60;45.60;;;;;;4957753;28;92853;-67
2024/01/17 01:11:03;;;;;;;1.33;1.02;;;20.60;45.60;;;;;;4950564;28;93075;-67
2024/01/17 01:13:29;;;;;;;2.78;1.30;;;20.60;45.60;;;;;;4946685;28;93898;-66
2024/01/17 01:15:55;;;;;;;1.67;1.15;;;20.60;45.50;;;;;;4948300;28;92642;-67
2024/01/17 01:18:20;;;;;;;1.80;1.30;;;20.50;45.70;;;;;;4962140;28;92269;-66
2024/01/17 01:20:46;;;;;;;2.78;1.45;;;20.50;45.70;;;;;;4946841;28;91290;-67
2024/01/17 01:23:12;;;;;;;1.92;1.17;;;20.50;45.70;;;;;;4955047;28;93172;-67
2024/01/17 01:25:38;;;;;;;2.70;1.30;;;20.50;45.70;;;;;;4956389;28;92895;-67
2024/01/17 01:28:04;;;;;;;1.90;1.58;;;20.50;45.60;;;;;;4949398;28;94248;-67
2024/01/17 01:30:31;;;;;;;1.75;1.10;;;20.50;45.70;;;;;;4959972;28;93828;-64
2024/01/17 01:32:57;;;;;;;2.72;1.50;;;20.40;45.90;;;;;;4961837;28;93873;-67
2024/01/17 01:35:22;;;;;;;2.70;1.52;;;20.40;45.70;;;;;;4957823;28;92319;-67
2024/01/17 01:37:48;;;;;;;1.88;1.40;;;20.40;46.30;;;;;;4953628;28;92664;-67
2024/01/17 01:40:14;;;;;;;1.98;1.50;;;20.40;45.80;;;;;;4951639;28;93189;-67
2024/01/17 01:42:46;;;;;;;2.00;1.55;;;20.40;45.70;;;;;;4962040;28;94624;-67
2024/01/17 01:45:11;;;;;;;2.15;1.50;;;20.40;45.70;;;;;;4944855;28;92860;-67
2024/01/17 01:47:38;;;;;;;1.83;1.38;;;20.30;45.40;;;;;;4947620;28;92036;-68
2024/01/17 01:50:05;;;;;;;1.60;1.17;;;20.30;45.70;;;;;;4954651;28;92652;-67
2024/01/17 01:52:33;;;;;;;1.98;1.50;;;20.30;45.50;;;;;;4944686;28;95118;-69
2024/01/17 01:55:00;;;;;;;1.85;1.45;;;20.30;45.60;;;;;;4947231;28;95468;-69
2024/01/17 01:57:28;;;;;;;2.05;1.40;;;20.30;45.50;;;;;;4942411;28;92385;-69
2024/01/17 01:59:55;;;;;;;2.30;1.37;;;20.20;45.60;;;;;;4962060;28;92795;-69
2024/01/17 02:02:22;;;;;;;2.47;1.23;;;20.30;45.50;;;;;;4963770;28;92761;-69
2024/01/17 02:04:48;;;;;;;2.15;1.33;;;20.20;45.60;;;;;;4961986;28;93520;-69
2024/01/17 02:07:16;;;;;;;1.48;1.00;;;20.20;46.30;;;;;;4950179;28;92978;-69
2024/01/17 02:09:44;;;;;;;2.08;1.27;;;20.20;45.60;;;;;;4955819;28;92317;-69
2024/01/17 02:14:40;;;;;;;1.50;1.17;;;20.10;45.50;;;;;;4931808;28;95102;-69
2024/01/17 02:17:07;;;;;;;2.17;1.55;;;20.10;45.60;;;;;;4948423;28;93500;-69
2024/01/17 02:19:32;;;;;;;1.50;1.23;;;20.10;45.70;;;;;;4951563;28;92817;-69
2024/01/17 02:25:20;;;;;;;1.90;1.50;;;20.10;45.60;;;;;;4949930;28;92655;-69
2024/01/17 02:27:46;;;;;;;1.58;1.10;;;20.00;45.50;;;;;;4948015;28;92339;-69
2024/01/17 02:30:14;;;;;;;1.92;1.20;;;20.00;46.30;;;;;;4947195;28;93006;-68
2024/01/17 02:32:42;;;;;;;2.25;1.55;;;20.00;45.70;;;;;;4959387;28;95699;-68
2024/01/17 02:35:08;;;;;;;1.98;1.50;;;20.00;45.70;;;;;;4947783;28;92944;-69
2024/01/17 02:37:34;;;;;;;2.15;1.38;;;20.00;45.60;;;;;;4955344;28;92937;-69
2024/01/17 02:40:00;;;;;;;3.72;1.48;;;20.00;45.70;;;;;;4961516;28;92242;-69
2024/01/17 02:42:25;;;;;;;2.00;1.48;;;20.00;45.70;;;;;;4960320;28;94884;-68
2024/01/17 02:44:51;;;;;;;1.33;1.00;;;20.00;45.50;;;;;;4943937;28;93813;-69
2024/01/17 02:47:18;;;;;;;1.40;1.27;;;19.90;45.50;;;;;;4948930;28;92410;-68
2024/01/17 02:49:43;;;;;;;2.88;1.50;;;19.90;45.40;;;;;;4960909;28;92967;-69
2024/01/17 02:52:10;;;;;;;2.17;1.17;;;19.90;45.50;;;;;;4945392;28;93262;-69
2024/01/17 02:54:37;;;;;;;2.22;1.52;;;19.90;45.30;;;;;;4959352;28;94091;-69
2024/01/17 02:57:03;;;;;;;2.22;1.27;;;19.90;45.30;;;;;;4957702;28;92666;-69
2024/01/17 02:59:29;;;;;;;1.55;1.30;;;19.90;45.60;;;;;;4948814;28;91705;-69
2024/01/17 03:01:55;;;;;;;1.63;1.15;;;19.90;45.50;;;;;;4961729;28;94573;-69
2024/01/17 03:04:21;;;;;;;2.08;1.38;;;19.80;45.60;;;;;;4943051;28;93243;-69
2024/01/17 03:06:50;;;;;;;1.67;1.10;;;19.80;45.50;;;;;;4948946;28;93417;-68
2024/01/17 03:09:16;;;;;;;1.73;1.23;;;19.80;45.60;;;;;;4949027;28;93144;-69
2024/01/17 03:11:42;;;;;;;1.42;1.10;;;19.80;45.70;;;;;;4949757;28;92796;-68
2024/01/17 03:14:07;;;;;;;1.77;1.20;;;19.80;45.50;;;;;;4945943;28;93529;-69
2024/01/17 03:16:35;;;;;;;1.80;1.23;;;19.80;45.60;;;;;;4945461;28;92615;-69
2024/01/17 03:19:01;;;;;;;2.20;1.35;;;19.80;45.50;;;;;;4958501;28;92573;-69
2024/01/17 03:21:27;;;;;;;2.55;1.20;;;19.70;45.60;;;;;;4941420;28;94060;-69
2024/01/17 03:23:52;;;;;;;1.38;1.20;;;19.70;45.50;;;;;;4947808;28;92261;-69
2024/01/17 03:26:18;;;;;;;1.80;1.20;;;19.70;45.60;;;;;;4959240;28;92600;-69
2024/01/17 03:28:44;;;;;;;2.00;1.40;;;19.70;45.50;;;;;;4944675;28;92604;-69
2024/01/17 03:31:09;;;;;;;1.27;0.98;;;19.70;45.60;;;;;;4946601;28;94820;-69
2024/01/17 03:33:35;;;;;;;1.50;1.30;;;19.70;45.50;;;;;;4948808;28;93317;-69
2024/01/17 03:36:01;;;;;;;1.38;0.93;;;19.70;45.50;;;;;;4950013;28;92882;-69
2024/01/17 03:38:26;;;;;;;1.73;0.98;;;19.70;45.60;;;;;;4946987;28;92005;-69
2024/01/17 03:40:56;;;;;;;1.65;1.08;;;19.60;45.30;;;;;;4955782;28;93181;-69
2024/01/17 03:43:23;;;;;;;1.45;1.13;;;19.60;45.40;;;;;;4952570;28;93581;-68
2024/01/17 03:45:49;;;;;;;1.50;1.25;;;19.60;45.30;;;;;;4950207;28;92490;-69
2024/01/17 03:48:16;;;;;;;1.52;1.20;;;19.60;45.40;;;;;;4949652;28;91733;-68
2024/01/17 03:50:41;;;;;;;1.55;1.25;;;19.60;45.40;;;;;;4950669;28;94241;-68
2024/01/17 03:53:07;;;;;;;1.88;1.35;;;19.60;45.30;;;;;;4947966;28;92840;-69
2024/01/17 03:55:33;;;;;;;1.30;1.20;;;19.60;45.40;;;;;;4961489;28;93152;-67
2024/01/17 03:57:59;;;;;;;1.38;1.05;;;19.60;45.50;;;;;;4957872;28;92973;-67
2024/01/17 04:00:26;;;;;;;2.92;1.58;;;19.60;45.50;;;;;;4944110;28;94625;-67
2024/01/17 04:02:51;;;;;;;1.73;1.27;;;19.50;45.40;;;;;;4958401;28;93414;-67
2024/01/17 04:05:19;;;;;;;1.25;1.10;;;19.50;45.50;;;;;;4947447;28;92304;-67
2024/01/17 04:07:45;;;;;;;1.20;1.02;;;19.50;45.40;;;;;;4944183;28;92592;-67
2024/01/17 04:10:11;;;;;;;2.22;1.35;;;19.50;45.30;;;;;;4961952;28;93616;-69
2024/01/17 04:12:37;;;;;;;2.13;1.17;;;19.50;45.20;;;;;;4968941;28;93976;-69
2024/01/17 04:15:03;;;;;;;1.35;1.20;;;19.50;45.50;;;;;;4947387;28;92113;-68
2024/01/17 04:17:29;;;;;;;2.28;1.10;;;19.50;45.40;;;;;;4970768;28;92825;-68
2024/01/17 04:19:54;;;;;;;2.17;1.40;;;19.50;45.30;;;;;;4952788;28;94013;-69
2024/01/17 04:22:20;;;;;;;1.05;0.90;;;19.50;45.50;;;;;;4950058;28;92870;-69
2024/01/17 04:24:48;;;;;;;1.67;1.15;;;19.40;45.30;;;;;;4951122;28;92396;-69
2024/01/17 04:27:13;;;;;;;2.10;1.38;;;19.40;45.20;;;;;;4949090;28;93059;-68
2024/01/17 04:29:39;;;;;;;1.70;1.02;;;19.40;45.50;;;;;;4953174;28;94121;-69
2024/01/17 04:32:05;;;;;;;1.45;1.33;;;19.40;45.20;;;;;;4960744;28;92711;-69
2024/01/17 04:34:31;;;;;;;2.22;1.50;;;19.40;45.50;;;;;;4955577;28;92559;-69
2024/01/17 04:36:57;;;;;;;1.55;1.42;;;19.40;45.50;;;;;;4953590;28;91929;-69
2024/01/17 04:39:22;;;;;;;1.17;1.08;;;19.40;45.30;;;;;;4952447;28;93268;-68
2024/01/17 04:41:50;;;;;;;1.48;0.98;;;19.40;45.30;;;;;;4952415;28;92723;-69
2024/01/17 04:44:16;;;;;;;2.13;1.30;;;19.30;45.30;;;;;;4958418;28;94216;-68
2024/01/17 04:46:41;;;;;;;2.13;1.40;;;19.30;45.30;;;;;;4960560;28;92611;-69
2024/01/17 04:49:08;;;;;;;1.25;1.02;;;19.30;45.40;;;;;;4971325;28;94612;-69
2024/01/17 04:51:33;;;;;;;1.10;1.00;;;19.30;45.40;;;;;;4952956;28;92728;-69
2024/01/17 04:53:59;;;;;;;1.60;1.20;;;19.30;45.30;;;;;;4948360;28;92613;-68
2024/01/17 04:56:25;;;;;;;1.63;1.38;;;19.30;45.30;;;;;;4962083;28;92001;-70
2024/01/17 04:58:51;;;;;;;1.08;1.00;;;19.30;45.30;;;;;;4958293;28;93863;-68
2024/01/17 05:01:18;;;;;;;1.75;1.17;;;19.30;45.40;;;;;;4955621;28;93079;-69
2024/01/17 05:03:43;;;;;;;1.30;1.00;;;19.30;45.40;;;;;;4954395;28;92688;-69
2024/01/17 05:06:09;;;;;;;1.60;1.00;;;19.20;45.40;;;;;;4957737;28;92562;-69
2024/01/17 05:08:35;;;;;;;1.27;1.00;;;19.20;45.20;;;;;;4952480;28;94594;-68
2024/01/17 05:11:00;;;;;;;1.20;1.00;;;19.30;45.30;;;;;;4949559;28;94971;-69
2024/01/17 05:13:27;;;;;;;1.90;1.30;;;19.20;45.40;;;;;;4952541;28;92765;-68
2024/01/17 05:15:53;;;;;;;1.38;1.10;;;19.20;45.30;;;;;;4952838;28;93015;-69
2024/01/17 05:18:19;;;;;;;1.42;1.00;;;19.20;45.20;;;;;;4933290;28;93296;-69
2024/01/17 05:20:47;;;;;;;1.20;1.05;;;19.20;45.40;;;;;;4949984;28;94103;-69
2024/01/17 05:23:13;;;;;;;1.83;1.10;;;19.20;45.30;;;;;;4950934;28;93090;-69
2024/01/17 05:25:38;;;;;;;1.30;1.20;;;19.20;45.30;;;;;;4956526;28;91846;-69
2024/01/17 05:28:06;;;;;;;1.20;1.10;;;19.10;45.30;;;;;;4948222;28;94006;-68
2024/01/17 05:30:32;;;;;;;1.33;0.80;;;19.10;45.40;;;;;;4947095;28;92584;-68
2024/01/17 05:32:58;;;;;;;2.20;1.05;;;19.10;45.30;;;;;;4947838;28;93253;-69
2024/01/17 05:35:24;;;;;;;1.40;1.00;;;19.10;45.30;;;;;;4963955;28;92549;-68
2024/01/17 05:37:50;;;;;;;1.20;0.73;;;19.10;45.30;;;;;;4953624;28;93179;-68
2024/01/17 05:40:16;;;;;;;1.02;0.93;;;19.10;45.50;;;;;;4952087;28;93498;-69
2024/01/17 05:42:44;;;;;;;1.50;1.27;;;19.10;45.50;;;;;;4953041;28;92315;-69
2024/01/17 05:45:10;;;;;;;1.38;1.10;;;19.10;45.30;;;;;;4964342;28;92219;-69
2024/01/17 05:47:40;;;;;;;1.73;1.02;;;19.10;44.70;;;;;;4972547;28;94145;-68
2024/01/17 05:50:09;;;;;;;3.17;1.30;;;19.10;44.90;;;;;;4950048;28;97604;-69
2024/01/17 05:52:39;;;;;;;2.00;1.00;;;19.10;44.90;;;;;;4948359;28;92647;-69
2024/01/17 05:55:07;;;;;;;1.63;1.02;;;19.10;44.90;;;;;;4950730;28;92516;-68
2024/01/17 05:57:33;;;;;;;1.48;1.30;;;19.10;44.70;;;;;;4948661;28;93514;-69
2024/01/17 05:59:59;;;;;;;1.63;1.08;;;19.10;44.60;;;;;;4947334;28;94155;-68
2024/01/17 06:02:25;;;;;;;1.45;1.02;;;19.10;44.40;;;;;;4948222;28;92506;-69
2024/01/17 06:04:51;;;;;;;4.63;1.58;;;19.10;44.40;;;;;;4947171;28;92554;-69
2024/01/17 06:07:16;;;;;;;1.40;1.00;;;19.00;44.50;;;;;;4947442;28;94183;-69
2024/01/17 06:09:45;;;;;;;0.95;0.80;;;19.10;44.30;;;;;;4951370;28;92628;-69
2024/01/17 06:12:10;;;;;;;1.67;1.20;;;19.00;44.40;;;;;;4951017;28;93097;-69
2024/01/17 06:14:36;;;;;;;1.40;1.10;;;19.10;44.20;;;;;;4951475;28;92287;-69
2024/01/17 06:17:02;;;;;;;0.90;0.82;;;19.00;44.30;;;;;;4953380;28;93122;-69
2024/01/17 06:19:28;;;;;;;1.60;0.90;;;19.00;44.20;;;;;;4945748;28;95373;-69
2024/01/17 06:21:54;;;;;;;2.35;1.17;;;19.00;44.10;;;;;;4946325;28;93420;-70
2024/01/17 06:24:20;;;;;;;2.40;1.45;;;19.00;44.30;;;;;;4960927;28;92423;-66
2024/01/17 06:26:46;;;;;;;1.65;1.10;;;19.00;44.20;;;;;;4941778;28;92699;-66
2024/01/17 06:29:12;;;;;;;1.00;0.85;;;19.00;44.30;;;;;;4947616;28;92714;-67
2024/01/17 06:31:38;;;;;;;1.20;1.00;;;19.00;44.30;;;;;;4953481;28;92531;-69
2024/01/17 06:34:04;;;;;;;2.30;1.10;;;19.00;44.30;;;;;;4948197;28;92475;-67
2024/01/17 06:36:30;;;;;;;2.50;1.30;;;19.00;44.10;;;;;;4961294;28;93904;-67
2024/01/17 06:38:56;;;;;;;1.13;1.02;;;19.10;43.60;;;;;;4947174;28;92878;-67
2024/01/17 06:41:22;;;;;;;2.65;1.15;;;19.00;44.10;;;;;;4949909;28;92393;-67
2024/01/17 06:43:48;;;;;;;1.90;1.33;;;19.10;44.40;;;;;;4961490;28;92213;-67
2024/01/17 06:46:14;;;;;;;2.03;1.15;;;19.10;44.70;;;;;;4945523;28;94253;-67
2024/01/17 06:48:40;;;;;;;1.50;1.40;;;19.10;44.90;;;;;;4946291;28;94696;-67
2024/01/17 06:51:06;;;;;;;1.63;1.10;;;19.20;45.10;;;;;;4946841;28;91977;-67
2024/01/17 06:53:32;;;;;;;1.75;1.13;;;19.20;45.20;;;;;;4948827;28;92690;-67
2024/01/17 06:55:58;;;;;;;2.70;1.35;;;19.30;45.20;;;;;;4950625;28;93214;-67
2024/01/17 06:58:24;;;;;;;1.48;0.95;;;19.30;45.20;;;;;;4949001;28;93189;-67
2024/01/17 07:00:49;;;;;;;1.73;1.10;;;19.30;45.20;;;;;;4948702;28;93006;-67
2024/01/17 07:03:15;;;;;;;1.60;1.10;;;19.40;45.10;;;;;;4945804;28;92106;-68
2024/01/17 07:05:41;;;;;;;2.03;1.33;;;19.40;45.00;;;;;;4945483;28;92688;-66
2024/01/17 07:08:07;;;;;;;1.83;1.30;;;19.40;45.00;;;;;;4948091;28;92740;-67
2024/01/17 07:10:36;;;;;;;1.65;1.15;;;19.40;45.10;;;;;;4945515;28;94058;-67
2024/01/17 07:13:02;;;;;;;;;;;19.40;45.10;;;;;;4962170;28;92300;-67
2024/01/17 07:15:27;;;;;;;1.35;1.02;;;19.40;45.20;;;;;;4947006;28;93044;-67
2024/01/17 07:17:53;;;;;;;1.98;1.20;;;19.50;45.20;;;;;;4947096;28;93023;-67
2024/01/17 07:20:19;;;;;;;1.25;1.10;;;19.40;45.30;;;;;;4948690;28;92392;-67
2024/01/17 07:22:45;;;;;;;1.70;1.08;;;19.40;45.00;;;;;;4954648;28;92814;-67
2024/01/17 07:25:14;;;;;;;2.22;1.40;;;19.40;45.20;;;;;;4948192;28;94256;-67
2024/01/17 07:27:41;;;;;;;3.97;1.55;;;19.40;45.10;;;;;;4965844;28;94218;-67
2024/01/17 07:30:07;;;;;;;5.00;1.30;;;19.50;44.90;;;;;;4951429;28;92590;-67
2024/01/17 07:32:33;;;;;;;4.13;1.10;;;19.40;44.90;;;;;;4949119;28;92803;-67
2024/01/17 07:34:59;;;;;;;3.28;1.20;;;19.50;45.20;;;;;;4958443;28;93924;-67
2024/01/17 07:37:25;;;;;;;6.30;2.08;;;19.50;45.20;;;;;;4948641;28;93743;-67
2024/01/17 07:39:51;;;;;;;3.92;1.50;;;19.60;45.30;;;;;;4944729;28;92035;-67
2024/01/17 07:42:21;;;;;;;5.93;1.63;;;19.60;45.30;;;;;;4949748;28;93049;-67
2024/01/17 07:44:47;;;;;;;3.83;1.90;;;19.70;45.30;;;;;;4949382;28;93105;-66
2024/01/17 07:47:13;;;;;;;5.93;1.77;;;19.90;45.20;;;;;;4953407;28;92727;-68
2024/01/17 07:49:39;;;;;;;4.45;2.10;;;20.00;45.10;;;;;;4951270;28;92373;-67
2024/01/17 07:52:06;;;;;;;5.95;1.60;;;20.10;45.00;;;;;;4953661;28;92244;-66
2024/01/17 07:54:33;;;;;;;6.43;1.80;;;20.20;45.00;;;;;;4951176;28;93589;-68
2024/01/17 07:56:59;;;;;;;8.23;2.47;;;20.20;45.00;;;;;;4949251;28;95520;-70
2024/01/17 07:59:27;;;;;;;4.90;1.65;;;20.20;44.90;;;;;;4951371;28;93899;-68
2024/01/17 08:01:54;;;;;;;4.65;2.03;;;20.40;45.00;;;;;;4953263;28;92457;-68
2024/01/17 08:04:20;;;;;;;5.60;1.40;;;20.40;44.80;;;;;;4947211;28;92694;-67
2024/01/17 08:06:47;;;;;;;4.63;1.63;;;20.50;44.70;;;;;;4957394;28;94354;-67
2024/01/17 08:09:22;;;;;;;4.03;2.00;;;20.60;44.50;;;;;;4945503;28;92118;-66
2024/01/17 08:11:52;;;;;;;4.57;1.83;;;20.70;44.40;;;;;;4944727;28;92809;-67
2024/01/17 08:14:18;;;;;;;6.25;1.98;;;20.70;44.40;;;;;;4962702;28;94562;-68
2024/01/17 08:16:45;;;;;;;4.88;2.00;;;20.80;44.20;;;;;;4953809;28;94071;-65
2024/01/17 08:19:11;;;;;;;9.63;2.22;;;20.90;44.10;;;;;;4950295;28;92420;-67
2024/01/17 08:21:37;;;;;;;10.55;2.65;;;20.90;44.30;;;;;;4950973;28;92853;-65
2024/01/17 08:24:03;;;;;;;7.15;2.60;;;20.90;43.80;;;;;;4951856;28;93951;-68
2024/01/17 08:26:30;;;;;;;5.93;1.90;;;20.90;43.80;;;;;;4947070;28;93775;-67
2024/01/17 08:28:56;;;;;;;7.40;2.15;;;21.00;44.00;;;;;;4943497;28;92692;-68
2024/01/17 08:31:22;;;;;;;5.55;2.65;;;21.00;44.10;;;;;;4958652;28;92799;-67
2024/01/17 08:33:49;;;;;;;6.03;2.15;;;21.00;44.20;;;;;;4943019;28;93792;-67
2024/01/17 08:36:15;;;;;;;9.10;2.70;;;21.10;44.10;;;;;;4945055;28;93415;-68
2024/01/17 08:38:41;;;;;;;8.63;2.80;;;21.10;44.30;;;;;;4957929;28;92495;-65
2024/01/17 08:41:08;;;;;;;12.82;3.45;;;21.10;43.80;;;;;;4947946;28;91708;-68
2024/01/17 08:43:35;;;;;;;13.32;3.60;;;21.10;43.50;;;;;;4946782;28;93160;-67
2024/01/17 08:46:01;;;;;;;9.65;3.20;;;21.10;42.90;;;;;;4958305;28;95759;-69
2024/01/17 08:48:27;;;;;;;9.50;3.17;;;21.10;42.70;;;;;;4942729;28;93141;-68
2024/01/17 08:50:53;;;;;;;9.38;2.63;;;21.10;43.00;;;;;;4957377;28;92353;-67
2024/01/17 08:53:19;;;;;;;7.60;3.08;;;21.00;43.30;;;;;;4947344;28;94590;-70
2024/01/17 08:55:46;;;;;;;10.02;2.80;;;20.90;43.30;;;;;;4942935;28;92914;-68
2024/01/17 08:58:12;;;;;;;11.90;3.13;;;20.90;43.70;;;;;;4948954;28;92238;-72
2024/01/17 09:00:39;;;;;;;6.32;2.78;;;20.90;43.60;;;;;;4931035;28;92691;-67
2024/01/17 09:03:05;;;;;;;8.05;3.38;;;20.90;43.70;;;;;;4950675;28;94233;-63
2024/01/17 09:05:31;;;;;;;5.20;2.80;;;20.90;44.50;;;;;;4949721;28;93439;-66
2024/01/17 09:07:58;;;;;;;9.48;3.33;;;20.90;44.10;;;;;;4945453;28;92618;-71
2024/01/17 09:10:24;;;;;;;11.93;2.83;;;20.90;44.30;;;;;;4948648;28;91934;-72
2024/01/17 09:12:50;;;;;;;9.18;2.75;;;20.90;44.30;;;;;;4962791;28;94037;-64
2024/01/17 09:15:16;;;;;;;12.02;3.22;;;20.90;45.00;;;;;;4959719;28;93013;-65
2024/01/17 09:17:43;;;;;;;10.13;3.72;;;20.90;45.20;;;;;;4946716;28;92670;-64
2024/01/17 09:20:10;;;;;;;7.68;2.72;;;20.80;45.30;;;;;;4956484;28;93024;-65
2024/01/17 09:22:36;;;;;;;8.55;2.17;;;20.80;44.70;;;;;;4946145;28;94131;-64
2024/01/17 09:25:02;;;;;;;7.85;2.60;;;20.80;44.80;;;;;;4951183;28;92972;-65
2024/01/17 09:27:34;;;;;;;7.78;2.63;;;20.80;44.80;;;;;;4966291;28;92599;-62
2024/01/17 09:30:00;;;;;;;4.68;2.17;;;20.80;44.70;;;;;;4947509;28;91569;-64
2024/01/17 09:32:25;;;;;;;7.38;3.08;;;20.80;44.80;;;;;;4956787;28;93150;-66
2024/01/17 09:34:52;;;;;;;8.02;2.90;;;20.80;44.80;;;;;;4954493;28;92880;-65
2024/01/17 09:37:18;;;;;;;5.38;1.95;;;20.80;45.10;;;;;;4946514;28;94074;-65
2024/01/17 09:39:44;;;;;;;9.45;3.03;;;20.80;44.90;;;;;;4959584;28;92664;-65
2024/01/17 09:42:10;;;;;;;8.10;2.83;;;20.80;44.90;;;;;;4945487;28;93145;-64
2024/01/17 09:44:37;;;;;;;8.70;2.75;;;20.80;44.90;;;;;;4948512;28;92953;-64
2024/01/17 09:47:05;;;;;;;8.32;2.72;;;20.80;45.00;;;;;;4948619;28;92275;-65
2024/01/17 09:49:35;;;;;;;4.43;2.35;;;20.90;45.20;;;;;;4947674;28;92700;-65
2024/01/17 09:52:06;;;;;;;8.63;2.83;;;20.90;45.20;;;;;;4959310;28;95423;-66
2024/01/17 09:54:37;;;;;;;8.05;2.70;;;20.90;45.30;;;;;;4944035;28;94414;-65
2024/01/17 09:57:09;;;;;;;8.88;2.60;;;20.90;45.30;;;;;;4945531;28;92553;-64
2024/01/17 09:59:49;;;;;;;8.57;3.00;;;21.00;45.40;;;;;;4950098;28;92750;-65
2024/01/17 10:02:16;;;;;;;7.78;2.83;;;20.90;45.60;;;;;;4944321;28;98631;-66
2024/01/17 10:04:45;;;;;;;3.35;2.05;;;21.00;45.10;;;;;;4944245;28;93772;-65
2024/01/17 10:07:12;;;;;;;6.00;2.00;;;21.00;45.10;;;;;;4942674;28;92404;-66
2024/01/17 10:09:39;;;;;;;6.22;2.00;;;21.00;45.20;;;;;;4937367;28;92226;-65
2024/01/17 10:12:05;;;;;;;4.10;1.75;;;21.00;45.50;;;;;;4954123;28;93708;-65
2024/01/17 10:14:31;;;;;;;6.30;2.38;;;21.00;45.30;;;;;;4959751;28;94165;-67
2024/01/17 10:16:57;;;;;;;7.25;2.05;;;21.10;45.40;;;;;;4955793;28;92700;-65
2024/01/17 10:19:26;;;;;;;9.10;2.55;;;21.10;45.10;;;;;;4948319;28;91623;-65
2024/01/17 10:21:52;;;;;;;6.25;2.53;;;21.10;45.10;;;;;;4945744;28;93710;-65
2024/01/17 10:24:19;;;;;;;6.68;2.15;;;21.10;44.90;;;;;;4959702;28;92951;-64
2024/01/17 10:26:45;;;;;;;4.70;2.33;;;21.10;44.80;;;;;;4942820;28;93416;-64
2024/01/17 10:29:11;;;;;;;5.60;2.03;;;21.10;44.60;;;;;;4949701;28;92428;-64
2024/01/17 10:31:41;;;;;;;6.45;2.40;;;21.10;44.60;;;;;;4951882;28;93719;-64
2024/01/17 10:34:07;;;;;;;;;;;21.10;44.60;;;;;;4959996;28;93488;-64
2024/01/17 10:36:34;;;;;;;4.72;2.15;;;21.10;44.60;;;;;;4945080;28;92867;-64
2024/01/17 10:39:06;;;;;;;5.72;1.90;;;21.10;44.70;;;;;;4945436;28;92447;-64
2024/01/17 10:41:33;;;;;;;4.43;2.10;;;21.10;44.80;;;;;;4948114;28;93338;-64
2024/01/17 10:44:03;;;;;;;4.18;2.10;;;21.10;44.70;;;;;;4936737;28;93939;-64
2024/01/17 10:46:30;;;;;;;2.65;1.55;;;21.10;44.90;;;;;;4959448;28;92440;-64
2024/01/17 10:48:58;;;;;;;5.07;2.22;;;21.10;44.80;;;;;;4949145;28;92955;-65
2024/01/17 10:51:24;;;;;;;7.10;1.92;;;21.10;44.70;;;;;;4945199;28;94490;-65
2024/01/17 10:53:56;;;;;;;3.40;1.88;;;21.10;44.80;;;;;;4949051;28;93723;-63
2024/01/17 10:56:23;;;;;;;3.38;1.70;;;21.20;44.80;;;;;;4958455;28;91975;-64
2024/01/17 10:58:53;;;;;;;3.42;1.90;;;21.20;44.80;;;;;;4946367;28;92348;-64
2024/01/17 11:01:32;;;;;;;2.78;1.35;;;21.20;44.60;;;;;;4951378;28;92652;-64
2024/01/17 11:04:07;;;;;;;3.03;1.83;;;21.20;44.60;;;;;;4952239;28;92867;-63
2024/01/17 11:06:34;;;;;;;4.10;1.70;;;21.20;44.20;;;;;;4943898;28;93182;-63
2024/01/17 11:09:00;;;;;;;3.85;1.92;;;21.20;44.30;;;;;;4935815;28;92359;-64
2024/01/17 11:11:28;;;;;;;3.88;1.58;;;21.20;44.30;;;;;;4955162;28;93347;-64
2024/01/17 11:13:55;;;;;;;4.07;2.00;;;21.20;44.40;;;;;;4952271;28;92750;-65
2024/01/17 11:16:22;;;;;;;6.22;1.63;;;21.20;44.40;;;;;;4945790;28;93289;-65
2024/01/17 11:18:50;;;;;;;3.28;1.63;;;21.20;44.40;;;;;;4945331;28;92593;-64
2024/01/17 11:21:18;;;;;;;4.70;1.77;;;21.20;44.30;;;;;;4943538;28;93077;-63
2024/01/17 11:23:53;;;;;;;4.65;1.80;;;21.20;44.60;;;;;;4957200;28;93229;-64
2024/01/17 11:26:25;;;;;;;3.20;1.52;;;21.20;44.70;;;;;;4947234;28;92782;-64
2024/01/17 11:29:01;;;;;;;4.35;1.70;;;21.20;44.70;;;;;;4959062;28;93772;-63
2024/01/17 11:32:05;;;;;;;5.82;2.40;;;21.20;44.70;;;;;;4946335;28;93113;-64
2024/01/17 11:34:30;;;;;;;2.55;1.40;;;21.20;44.60;;;;;;4952076;28;97744;-64
2024/01/17 11:36:56;;;;;;;4.38;1.52;;;21.20;44.70;;;;;;4950113;28;93327;-67
2024/01/17 11:39:25;;;;;;;4.80;1.80;;;21.20;44.00;;;;;;4943834;28;92455;-66
2024/01/17 11:41:51;;;;;;;4.22;1.95;;;21.20;43.60;;;;;;4944357;28;95088;-65
2024/01/17 11:44:18;;;;;;;4.50;2.17;;;21.20;44.00;;;;;;4961544;28;95205;-65
2024/01/17 11:46:54;;;;;;;4.22;2.28;;;21.20;44.40;;;;;;4948479;28;92463;-66
2024/01/17 11:49:40;;;;;;;9.57;3.15;;;21.30;44.70;;;;;;4944150;28;92684;-65
2024/01/17 11:52:35;;;;;;;10.40;2.92;;;21.30;44.80;;;;;;4960874;28;96309;-65
2024/01/17 11:55:01;;;;;;;19.00;4.80;;;21.30;45.10;;;;;;4941988;28;94782;-65
2024/01/17 11:57:31;;;;;;;17.00;4.20;;;21.30;45.10;;;;;;4946109;28;92667;-65
2024/01/17 12:00:06;;;;;;;19.45;5.68;;;21.30;45.40;;;;;;4945126;28;91987;-66
2024/01/17 12:02:42;;;;;;;17.48;6.22;;;21.30;45.60;;;;;;4955023;28;93196;-65
2024/01/17 12:05:10;;;;;;;19.60;6.20;;;21.30;45.70;;;;;;4923737;28;100748;-63
2024/01/17 12:07:40;;;;;;;19.48;6.22;;;21.30;45.90;;;;;;4958368;28;93477;-65
2024/01/17 12:10:11;;;;;;;15.60;5.88;;;21.40;46.10;;;;;;4961534;28;92618;-64
2024/01/17 12:12:37;;;;;;;15.75;5.25;;;21.40;46.30;;;;;;4945101;28;93125;-64
2024/01/17 12:15:09;;;;;;;13.55;5.25;;;21.40;46.40;;;;;;4946774;28;93356;-64
2024/01/17 12:17:37;;;;;;;19.35;5.35;;;21.50;46.50;;;;;;4947034;28;92783;-63
2024/01/17 12:20:06;;;;;;;12.50;4.47;;;21.40;46.50;;;;;;4943957;28;94069;-63
2024/01/17 12:22:32;;;;;;;16.98;5.57;;;21.50;46.40;;;;;;4946216;28;94218;-61
2024/01/17 12:24:58;;;;;;;15.98;4.57;;;21.50;46.50;;;;;;4947959;28;93161;-64
2024/01/17 12:27:26;;;;;;;23.90;5.25;;;21.50;46.60;;;;;;4948273;28;93314;-62
2024/01/17 12:29:54;;;;;;;15.40;4.95;;;21.50;46.40;;;;;;4944349;28;92948;-63
2024/01/17 12:32:22;;;;;;;10.90;4.25;;;21.60;46.10;;;;;;4954386;28;94207;-64
2024/01/17 12:34:47;;;;;;;13.40;4.65;;;21.60;46.10;;;;;;4948679;28;93903;-63
2024/01/17 12:37:13;;;;;;;13.18;4.38;;;21.60;46.10;;;;;;4945702;28;92185;-66
2024/01/17 12:39:39;;;;;;;13.93;4.30;;;21.60;46.20;;;;;;4960443;28;92777;-64
2024/01/17 12:42:05;;;;;;;14.73;4.97;;;21.60;46.30;;;;;;4947468;28;92417;-70
2024/01/17 12:44:31;;;;;;;12.77;4.30;;;21.60;46.50;;;;;;4965164;28;94389;-70
2024/01/17 12:46:57;;;;;;;13.00;4.03;;;21.60;46.70;;;;;;4950754;28;92773;-66
2024/01/17 12:49:23;;;;;;;15.13;4.68;;;21.60;46.80;;;;;;4951424;28;91586;-66